createdAt,value
2023-10-29T00:02:38.646Z,6.85
2023-10-29T00:05:36.608Z,6.40
2023-10-29T00:08:34.545Z,7.93
2023-10-29T00:11:32.538Z,8.00
2023-10-29T00:14:31.779Z,9.25
2023-10-29T00:17:30.350Z,7.13
2023-10-29T00:20:28.333Z,7.00
2023-10-29T00:23:26.314Z,7.47
2023-10-29T00:26:24.210Z,6.70
2023-10-29T00:29:22.164Z,8.55
2023-10-29T00:32:20.599Z,9.43
2023-10-29T00:35:18.471Z,8.63
2023-10-29T00:38:16.339Z,4.65
2023-10-29T00:41:14.276Z,6.88
2023-10-29T00:44:12.099Z,5.65
2023-10-29T00:47:10.940Z,6.95
2023-10-29T00:50:09.768Z,4.00
2023-10-29T00:53:07.951Z,6.25
2023-10-29T00:56:07.542Z,10.10
2023-10-29T00:59:06.491Z,7.78
2023-10-29T01:02:04.469Z,7.03
2023-10-29T01:05:03.666Z,9.90
2023-10-29T01:08:02.297Z,8.75
2023-10-29T01:11:00.282Z,8.30
2023-10-29T01:13:58.266Z,8.77
2023-10-29T01:16:56.233Z,7.70
2023-10-29T01:19:54.076Z,7.82
2023-10-29T01:22:52.218Z,7.90
2023-10-29T01:25:50.109Z,6.72
2023-10-29T01:28:48.016Z,5.55
2023-10-29T01:31:50.301Z,5.70
2023-10-29T01:34:48.321Z,10.00
2023-10-29T01:37:46.316Z,7.05
2023-10-29T01:40:44.339Z,6.28
2023-10-29T01:43:42.202Z,6.60
2023-10-29T01:46:40.409Z,5.80
2023-10-29T01:49:38.306Z,5.82
2023-10-29T01:52:40.047Z,8.80
2023-10-29T01:55:38.699Z,6.85
2023-10-29T01:58:37.245Z,7.05
2023-10-29T02:01:35.122Z,9.35
2023-10-29T02:04:35.553Z,6.32
2023-10-29T02:07:33.388Z,6.70
2023-10-29T02:10:32.266Z,6.80
2023-10-29T02:13:30.048Z,8.07
2023-10-29T02:16:28.222Z,6.75
2023-10-29T02:19:26.043Z,5.85
2023-10-29T02:22:26.074Z,6.15
2023-10-29T02:25:23.874Z,8.00
2023-10-29T02:28:21.799Z,6.85
2023-10-29T02:31:21.375Z,8.73
2023-10-29T02:34:19.496Z,7.30
2023-10-29T02:37:17.345Z,8.90
2023-10-29T02:40:15.556Z,10.73
2023-10-29T02:43:14.983Z,7.68
2023-10-29T02:46:13.196Z,10.07
2023-10-29T02:49:11.122Z,9.05
2023-10-29T02:52:09.095Z,10.02
2023-10-29T02:55:08.592Z,8.85
2023-10-29T02:58:07.481Z,9.75
2023-10-29T03:01:08.748Z,10.65
2023-10-29T03:04:07.396Z,7.57
2023-10-29T03:07:05.371Z,10.10
2023-10-29T03:10:03.260Z,9.95
2023-10-29T03:13:01.036Z,6.25
2023-10-29T03:15:59.095Z,17.20
2023-10-29T03:18:56.952Z,10.52
2023-10-29T03:21:55.288Z,8.63
2023-10-29T03:24:53.151Z,10.20
2023-10-29T03:27:51.133Z,8.23
2023-10-29T03:30:48.950Z,11.13
2023-10-29T03:33:48.552Z,11.68
2023-10-29T03:36:46.341Z,7.43
2023-10-29T03:39:51.888Z,8.57
2023-10-29T03:42:49.695Z,8.10
2023-10-29T03:45:49.267Z,7.90
2023-10-29T03:48:47.256Z,7.88
2023-10-29T03:51:48.293Z,7.97
2023-10-29T03:54:47.481Z,7.85
2023-10-29T03:57:46.325Z,12.38
2023-10-29T04:00:54.522Z,13.88
2023-10-29T04:03:53.149Z,9.75
2023-10-29T04:06:57.530Z,8.32
2023-10-29T04:09:57.783Z,10.90
2023-10-29T04:12:59.455Z,11.25
2023-10-29T04:15:58.803Z,11.07
2023-10-29T04:18:56.611Z,12.35
2023-10-29T04:22:02.308Z,12.30
2023-10-29T04:25:00.818Z,14.38
2023-10-29T04:28:01.025Z,7.90
2023-10-29T04:31:04.167Z,11.25
2023-10-29T04:34:05.006Z,10.00
2023-10-29T04:37:04.822Z,6.90
2023-10-29T04:40:05.806Z,12.25
2023-10-29T04:43:04.176Z,9.02
2023-10-29T04:46:09.335Z,9.15
2023-10-29T04:49:08.017Z,6.10
2023-10-29T04:52:12.050Z,9.88
2023-10-29T04:55:15.499Z,7.28
2023-10-29T04:58:18.597Z,10.82
2023-10-29T05:01:19.658Z,8.88
2023-10-29T05:04:17.775Z,7.82
2023-10-29T05:07:15.612Z,7.63
2023-10-29T05:10:15.349Z,9.02
2023-10-29T05:13:13.125Z,8.55
2023-10-29T05:16:11.492Z,10.98
2023-10-29T05:19:10.832Z,7.80
2023-10-29T05:22:09.006Z,8.15
2023-10-29T05:25:09.713Z,8.18
2023-10-29T05:28:07.618Z,10.55
2023-10-29T05:31:05.488Z,9.52
2023-10-29T05:34:03.396Z,9.68
2023-10-29T05:37:01.194Z,9.40
2023-10-29T05:39:59.060Z,11.27
2023-10-29T05:42:56.929Z,9.80
2023-10-29T05:45:54.872Z,10.85
2023-10-29T05:48:52.688Z,12.10
2023-10-29T05:51:51.611Z,16.20
2023-10-29T05:54:49.604Z,13.48
2023-10-29T05:57:48.021Z,9.98
2023-10-29T06:00:46.859Z,11.50
2023-10-29T06:03:45.035Z,12.95
2023-10-29T06:06:54.267Z,9.35
2023-10-29T06:09:52.690Z,10.10
2023-10-29T06:12:50.484Z,9.00
2023-10-29T06:15:48.621Z,9.30
2023-10-29T06:18:46.416Z,8.15
2023-10-29T06:21:44.331Z,7.35
2023-10-29T06:24:42.628Z,11.80
2023-10-29T06:27:40.542Z,8.48
2023-10-29T06:30:38.473Z,8.32
2023-10-29T06:33:39.882Z,8.45
2023-10-29T06:36:37.775Z,10.30
2023-10-29T06:39:35.631Z,9.00
2023-10-29T06:42:33.606Z,11.10
2023-10-29T06:45:31.516Z,7.43
2023-10-29T06:48:29.414Z,10.35
2023-10-29T06:51:27.529Z,8.20
2023-10-29T06:54:26.168Z,10.77
2023-10-29T06:57:24.086Z,11.85
2023-10-29T07:00:22.074Z,9.73
2023-10-29T07:03:20.134Z,9.48
2023-10-29T07:06:18.047Z,8.35
2023-10-29T07:09:17.397Z,9.40
2023-10-29T07:12:15.308Z,9.27
2023-10-29T07:15:13.517Z,8.05
2023-10-29T07:18:11.412Z,10.48
2023-10-29T07:21:09.419Z,12.13
2023-10-29T07:24:08.371Z,11.23
2023-10-29T07:27:06.748Z,13.70
2023-10-29T07:30:04.791Z,16.42
2023-10-29T07:33:03.033Z,13.63
2023-10-29T07:36:05.119Z,9.35
2023-10-29T07:39:03.076Z,12.45
2023-10-29T07:42:03.021Z,14.13
2023-10-29T07:45:01.157Z,12.85
2023-10-29T07:48:00.301Z,10.95
2023-10-29T07:50:58.747Z,12.23
2023-10-29T07:53:58.529Z,10.50
2023-10-29T07:56:58.524Z,11.23
2023-10-29T07:59:56.410Z,19.52
2023-10-29T08:02:54.396Z,24.92
2023-10-29T08:05:56.260Z,35.03
2023-10-29T08:08:54.268Z,37.13
2023-10-29T08:11:52.201Z,47.55
2023-10-29T08:14:50.421Z,47.15
2023-10-29T08:17:48.474Z,60.92
2023-10-29T08:20:46.482Z,62.60
2023-10-29T08:23:44.754Z,91.82
2023-10-29T08:26:42.888Z,95.97
2023-10-29T08:29:43.648Z,74.10
2023-10-29T08:32:41.745Z,69.43
2023-10-29T08:35:39.895Z,72.63
2023-10-29T08:38:38.132Z,79.82
2023-10-29T08:41:36.467Z,82.88
2023-10-29T08:44:34.455Z,86.47
2023-10-29T08:47:32.948Z,51.42
2023-10-29T08:50:31.056Z,70.13
2023-10-29T08:53:28.848Z,71.35
2023-10-29T08:56:26.904Z,90.85
2023-10-29T08:59:25.990Z,61.13
2023-10-29T09:02:23.993Z,61.75
2023-10-29T09:05:21.968Z,71.32
2023-10-29T09:08:19.884Z,64.65
2023-10-29T09:11:17.820Z,58.72
2023-10-29T09:14:15.697Z,74.68
2023-10-29T09:17:14.350Z,68.30
2023-10-29T09:20:13.959Z,68.50
2023-10-29T09:23:11.777Z,65.45
2023-10-29T09:26:09.846Z,75.03
2023-10-29T09:29:10.124Z,62.03
2023-10-29T09:32:09.641Z,59.92
2023-10-29T09:35:09.526Z,57.88
2023-10-29T09:38:07.492Z,54.55
2023-10-29T09:41:06.383Z,58.42
2023-10-29T09:44:07.623Z,58.60
2023-10-29T09:47:18.826Z,56.67
2023-10-29T09:50:17.254Z,76.10
2023-10-29T09:53:17.058Z,78.40
2023-10-29T09:56:15.055Z,58.50
2023-10-29T09:59:12.849Z,58.58
2023-10-29T10:02:12.025Z,52.20
2023-10-29T10:05:11.630Z,51.28
2023-10-29T10:08:10.966Z,48.72
2023-10-29T10:11:23.018Z,47.50
2023-10-29T10:14:28.430Z,38.20
2023-10-29T10:17:26.384Z,49.88
2023-10-29T10:20:24.936Z,51.10
2023-10-29T10:23:23.526Z,42.33
2023-10-29T10:26:39.394Z,44.85
2023-10-29T10:29:38.733Z,47.88
2023-10-29T10:32:36.631Z,51.90
2023-10-29T10:35:56.661Z,47.92
2023-10-29T10:38:54.961Z,47.17
2023-10-29T10:41:52.734Z,52.63
2023-10-29T10:44:50.776Z,54.92
2023-10-29T10:47:48.695Z,50.15
2023-10-29T10:50:48.054Z,54.97
2023-10-29T10:53:46.896Z,50.50
2023-10-29T10:56:45.722Z,44.45
2023-10-29T10:59:45.602Z,52.47
2023-10-29T11:02:44.639Z,50.50
2023-10-29T11:05:43.412Z,43.65
2023-10-29T11:08:42.823Z,42.97
2023-10-29T11:11:51.877Z,45.40
2023-10-29T11:15:21.035Z,43.78
2023-10-29T11:18:30.390Z,41.88
2023-10-29T11:21:36.511Z,54.67
2023-10-29T11:24:34.292Z,53.88
2023-10-29T11:27:42.324Z,53.10
2023-10-29T11:30:40.207Z,53.50
2023-10-29T11:33:38.294Z,46.53
2023-10-29T11:36:39.091Z,54.83
2023-10-29T11:39:37.818Z,52.35
2023-10-29T11:42:35.635Z,59.80
2023-10-29T11:45:37.470Z,64.47
2023-10-29T11:48:35.693Z,61.50
2023-10-29T11:51:33.747Z,55.30
2023-10-29T11:54:33.960Z,51.63
2023-10-29T11:57:32.906Z,43.47
2023-10-29T12:00:46.063Z,36.65
2023-10-29T12:03:52.476Z,26.08
2023-10-29T12:06:50.725Z,22.58
2023-10-29T12:09:49.023Z,26.65
2023-10-29T12:12:55.239Z,27.08
2023-10-29T12:16:03.100Z,26.73
2023-10-29T12:19:01.008Z,29.70
2023-10-29T12:21:59.016Z,30.98
2023-10-29T12:25:01.636Z,27.10
2023-10-29T12:30:59.550Z,23.73
2023-10-29T12:34:01.858Z,26.15
2023-10-29T12:36:59.651Z,19.23
2023-10-29T12:40:01.749Z,20.20
2023-10-29T12:43:00.274Z,20.50
2023-10-29T12:46:02.272Z,18.23
2023-10-29T12:49:04.742Z,17.57
2023-10-29T12:52:04.269Z,22.00
2023-10-29T12:55:02.190Z,19.63
2023-10-29T12:58:05.601Z,20.55
2023-10-29T13:01:05.271Z,19.05
2023-10-29T13:04:03.248Z,15.07
2023-10-29T13:07:16.983Z,15.05
2023-10-29T13:10:15.184Z,15.98
2023-10-29T13:13:13.136Z,19.95
2023-10-29T13:16:11.124Z,18.52
2023-10-29T13:19:08.957Z,22.02
2023-10-29T13:22:07.115Z,20.27
2023-10-29T13:25:07.638Z,22.27
2023-10-29T13:28:06.130Z,23.13
2023-10-29T13:31:04.554Z,22.10
2023-10-29T13:34:02.486Z,18.90
2023-10-29T13:37:01.154Z,16.88
2023-10-29T13:40:00.228Z,18.98
2023-10-29T13:42:57.998Z,16.02
2023-10-29T13:46:03.706Z,16.00
2023-10-29T13:49:01.943Z,15.77
2023-10-29T13:52:00.041Z,15.70
2023-10-29T13:54:58.239Z,17.02
2023-10-29T13:57:57.742Z,19.45
2023-10-29T14:00:55.840Z,18.50
2023-10-29T14:03:54.302Z,19.25
2023-10-29T14:06:52.103Z,24.17
2023-10-29T14:09:50.015Z,16.00
2023-10-29T14:12:48.184Z,23.42
2023-10-29T14:15:46.186Z,25.77
2023-10-29T14:18:44.818Z,18.92
2023-10-29T14:21:43.747Z,23.40
2023-10-29T14:24:41.716Z,21.73
2023-10-29T14:27:39.940Z,16.73
2023-10-29T14:30:40.193Z,17.13
2023-10-29T14:33:39.390Z,16.13
2023-10-29T14:36:37.999Z,16.42
2023-10-29T14:39:36.240Z,16.52
2023-10-29T14:42:34.260Z,15.95
2023-10-29T14:45:32.559Z,21.25
2023-10-29T14:48:30.705Z,15.50
2023-10-29T14:51:28.751Z,15.48
2023-10-29T14:54:26.715Z,16.92
2023-10-29T14:57:29.998Z,15.68
2023-10-29T15:00:28.268Z,16.52
2023-10-29T15:03:26.707Z,14.98
2023-10-29T15:06:24.683Z,16.00
2023-10-29T15:09:22.858Z,14.25
2023-10-29T15:12:21.864Z,16.50
2023-10-29T15:15:34.637Z,17.27
2023-10-29T15:18:33.561Z,18.58
2023-10-29T15:21:31.780Z,29.80
2023-10-29T15:24:32.158Z,26.25
2023-10-29T15:27:30.028Z,30.05
2023-10-29T15:30:28.256Z,24.25
2023-10-29T15:33:26.260Z,35.20
2023-10-29T15:36:24.188Z,32.92
2023-10-29T15:39:22.425Z,33.13
2023-10-29T15:42:23.235Z,28.17
2023-10-29T15:45:21.239Z,24.45
2023-10-29T15:48:22.115Z,32.72
2023-10-29T15:51:26.045Z,28.95
2023-10-29T15:54:23.984Z,27.10
2023-10-29T15:57:24.813Z,26.35
2023-10-29T16:00:22.914Z,23.45
2023-10-29T16:03:20.960Z,20.58
2023-10-29T16:06:18.987Z,20.33
2023-10-29T16:09:17.388Z,21.90
2023-10-29T16:12:15.362Z,18.83
2023-10-29T16:15:13.542Z,21.15
2023-10-29T16:18:11.476Z,22.48
2023-10-29T16:21:10.644Z,20.05
2023-10-29T16:24:08.803Z,20.42
2023-10-29T16:27:06.805Z,19.75
2023-10-29T16:30:05.081Z,21.63
2023-10-29T16:33:05.269Z,21.00
2023-10-29T16:36:04.846Z,20.23
2023-10-29T16:39:02.920Z,17.20
2023-10-29T16:42:01.281Z,17.20
2023-10-29T16:44:59.297Z,22.00
2023-10-29T16:47:58.050Z,18.67
2023-10-29T16:51:03.240Z,18.15
2023-10-29T16:54:01.854Z,21.98
2023-10-29T16:56:59.846Z,18.05
2023-10-29T16:59:57.710Z,18.27
2023-10-29T17:02:56.281Z,22.02
2023-10-29T17:05:54.360Z,17.17
2023-10-29T17:08:52.382Z,18.00
2023-10-29T17:11:50.787Z,18.17
2023-10-29T17:14:48.769Z,17.90
2023-10-29T17:17:46.668Z,17.40
2023-10-29T17:20:45.322Z,17.65
2023-10-29T17:23:45.464Z,18.88
2023-10-29T17:26:43.462Z,20.30
2023-10-29T17:29:41.297Z,20.48
2023-10-29T17:32:39.205Z,18.67
2023-10-29T17:35:37.510Z,17.48
2023-10-29T17:38:35.718Z,16.13
2023-10-29T17:41:33.563Z,17.33
2023-10-29T17:44:32.288Z,17.58
2023-10-29T17:47:30.231Z,16.52
2023-10-29T17:50:28.207Z,15.98
2023-10-29T17:53:26.271Z,24.60
2023-10-29T17:56:24.670Z,13.35
2023-10-29T17:59:23.172Z,18.13
2023-10-29T18:02:21.606Z,16.17
2023-10-29T18:05:19.525Z,16.15
2023-10-29T18:08:17.439Z,14.18
2023-10-29T18:11:16.105Z,16.83
2023-10-29T18:14:13.970Z,13.20
2023-10-29T18:17:11.862Z,18.42
2023-10-29T18:20:10.454Z,15.07
2023-10-29T18:23:08.539Z,14.05
2023-10-29T18:26:06.670Z,15.13
2023-10-29T18:29:05.124Z,12.88
2023-10-29T18:32:03.050Z,12.02
2023-10-29T18:35:02.352Z,13.43
2023-10-29T18:38:02.559Z,13.20
2023-10-29T18:41:00.367Z,15.32
2023-10-29T18:44:00.799Z,14.43
2023-10-29T18:47:00.039Z,14.23
2023-10-29T18:49:59.236Z,10.90
2023-10-29T18:52:57.334Z,12.93
2023-10-29T18:55:55.557Z,16.98
2023-10-29T18:58:57.418Z,12.27
2023-10-29T19:01:55.568Z,12.70
2023-10-29T19:04:53.723Z,11.27
2023-10-29T19:07:51.615Z,13.45
2023-10-29T19:10:49.498Z,13.60
2023-10-29T19:13:48.413Z,13.45
2023-10-29T19:16:46.511Z,12.70
2023-10-29T19:19:44.424Z,10.88
2023-10-29T19:22:42.231Z,13.38
2023-10-29T19:25:40.121Z,15.45
2023-10-29T19:28:38.121Z,12.10
2023-10-29T19:31:36.908Z,16.45
2023-10-29T19:34:34.781Z,14.05
2023-10-29T19:37:32.968Z,20.67
2023-10-29T19:40:30.984Z,17.67
2023-10-29T19:43:29.444Z,16.35
2023-10-29T19:46:28.148Z,13.18
2023-10-29T19:49:26.159Z,15.70
2023-10-29T19:52:24.240Z,11.02
2023-10-29T19:55:22.329Z,11.68
2023-10-29T19:58:20.247Z,11.50
2023-10-29T20:01:21.680Z,14.20
2023-10-29T20:04:19.854Z,12.18
2023-10-29T20:07:17.930Z,14.38
2023-10-29T20:10:16.330Z,14.93
2023-10-29T20:13:14.271Z,14.82
2023-10-29T20:16:12.383Z,16.35
2023-10-29T20:19:10.414Z,12.10
2023-10-29T20:22:08.243Z,13.50
2023-10-29T20:25:06.641Z,17.80
2023-10-29T20:28:04.650Z,15.98
2023-10-29T20:31:02.574Z,19.77
2023-10-29T20:34:00.466Z,14.65
2023-10-29T20:36:58.352Z,23.00
2023-10-29T20:39:56.111Z,30.42
2023-10-29T20:42:54.096Z,32.90
2023-10-29T20:45:53.301Z,35.13
2023-10-29T20:48:52.062Z,38.30
2023-10-29T20:51:49.864Z,27.75
2023-10-29T20:54:47.755Z,31.40
2023-10-29T20:57:45.599Z,30.02
2023-10-29T21:00:47.924Z,28.20
2023-10-29T21:03:45.900Z,31.80
2023-10-29T21:06:44.056Z,38.03
2023-10-29T21:09:41.964Z,31.13
2023-10-29T21:12:39.928Z,27.50
2023-10-29T21:15:41.977Z,35.03
2023-10-29T21:18:39.917Z,36.90
2023-10-29T21:21:37.885Z,34.45
2023-10-29T21:24:35.851Z,36.13
2023-10-29T21:27:34.334Z,29.27
2023-10-29T21:30:32.622Z,28.17
2023-10-29T21:33:30.689Z,30.92
2023-10-29T21:36:28.754Z,27.10
2023-10-29T21:39:26.722Z,26.80
2023-10-29T21:42:24.811Z,32.00
2023-10-29T21:45:22.678Z,31.98
2023-10-29T21:48:20.799Z,24.75
2023-10-29T21:51:18.729Z,33.45
2023-10-29T21:54:16.706Z,30.98
2023-10-29T21:57:14.575Z,27.15
2023-10-29T22:00:13.217Z,27.00
2023-10-29T22:03:11.201Z,34.08
2023-10-29T22:06:09.380Z,29.70
2023-10-29T22:09:07.227Z,29.75
2023-10-29T22:12:05.508Z,32.75
2023-10-29T22:15:05.113Z,28.38
2023-10-29T22:18:03.114Z,28.15
2023-10-29T22:21:06.853Z,24.30
2023-10-29T22:24:05.660Z,27.65
2023-10-29T22:27:03.575Z,23.20
2023-10-29T22:30:01.663Z,23.25
2023-10-29T22:32:59.613Z,22.15
2023-10-29T22:36:01.599Z,20.52
2023-10-29T22:39:00.194Z,21.05
2023-10-29T22:41:58.213Z,17.02
2023-10-29T22:44:56.041Z,19.13
2023-10-29T22:47:56.182Z,19.67
2023-10-29T22:50:54.087Z,15.90
2023-10-29T22:53:52.006Z,19.30
2023-10-29T22:56:49.809Z,17.00
2023-10-29T22:59:47.948Z,16.27
2023-10-29T23:02:46.068Z,16.80
2023-10-29T23:05:44.161Z,19.98
2023-10-29T23:08:42.347Z,16.40
2023-10-29T23:11:40.212Z,15.57
2023-10-29T23:14:38.100Z,14.15
2023-10-29T23:17:36.170Z,15.77
2023-10-29T23:20:34.086Z,15.07
2023-10-29T23:23:32.050Z,17.33
2023-10-29T23:26:31.291Z,18.90
2023-10-29T23:29:29.204Z,18.38
2023-10-29T23:32:27.069Z,16.58
2023-10-29T23:35:25.110Z,15.93
2023-10-29T23:38:22.936Z,17.52
2023-10-29T23:41:20.988Z,15.73
2023-10-29T23:44:19.140Z,17.00
2023-10-29T23:47:17.058Z,17.73
2023-10-29T23:50:15.036Z,13.07
2023-10-29T23:53:12.942Z,15.43
2023-10-29T23:56:10.776Z,16.00
2023-10-29T23:59:08.808Z,13.07
